sensor_id;sensor_type;location;lat;lon;timestamp;P1;durP1;ratioP1;P2;durP2;ratioP2
13753;SDS011;6948;51.216;6.778;2023-04-07T00:00:06;19.57;;;17.67;;
13753;SDS011;6948;51.216;6.778;2023-04-07T00:02:32;19.20;;;17.40;;
13753;SDS011;6948;51.216;6.778;2023-04-07T00:04:58;20.20;;;18.17;;
13753;SDS011;6948;51.216;6.778;2023-04-07T00:07:23;20.07;;;17.97;;
13753;SDS011;6948;51.216;6.778;2023-04-07T00:09:49;20.13;;;18.13;;
13753;SDS011;6948;51.216;6.778;2023-04-07T00:12:15;19.90;;;17.93;;
13753;SDS011;6948;51.216;6.778;2023-04-07T00:14:41;18.73;;;16.93;;
13753;SDS011;6948;51.216;6.778;2023-04-07T00:17:06;19.33;;;17.43;;
13753;SDS011;6948;51.216;6.778;2023-04-07T00:19:32;19.83;;;17.83;;
13753;SDS011;6948;51.216;6.778;2023-04-07T00:21:58;19.70;;;17.60;;
13753;SDS011;6948;51.216;6.778;2023-04-07T00:24:23;19.40;;;17.37;;
13753;SDS011;6948;51.216;6.778;2023-04-07T00:26:49;18.90;;;17.10;;
13753;SDS011;6948;51.216;6.778;2023-04-07T00:29:15;19.47;;;17.40;;
13753;SDS011;6948;51.216;6.778;2023-04-07T00:31:40;19.20;;;17.30;;
13753;SDS011;6948;51.216;6.778;2023-04-07T00:34:06;18.37;;;16.50;;
13753;SDS011;6948;51.216;6.778;2023-04-07T00:36:31;19.13;;;17.13;;
13753;SDS011;6948;51.216;6.778;2023-04-07T00:38:57;18.27;;;16.47;;
13753;SDS011;6948;51.216;6.778;2023-04-07T00:41:23;20.27;;;18.27;;
13753;SDS011;6948;51.216;6.778;2023-04-07T00:43:49;20.53;;;18.43;;
13753;SDS011;6948;51.216;6.778;2023-04-07T00:46:16;19.97;;;18.07;;
13753;SDS011;6948;51.216;6.778;2023-04-07T00:48:42;19.77;;;17.83;;
13753;SDS011;6948;51.216;6.778;2023-04-07T00:51:08;21.17;;;18.97;;
13753;SDS011;6948;51.216;6.778;2023-04-07T00:53:34;20.03;;;18.03;;
13753;SDS011;6948;51.216;6.778;2023-04-07T00:56:00;19.87;;;17.90;;
13753;SDS011;6948;51.216;6.778;2023-04-07T00:58:26;21.13;;;19.03;;
13753;SDS011;6948;51.216;6.778;2023-04-07T01:00:54;21.37;;;19.07;;
13753;SDS011;6948;51.216;6.778;2023-04-07T01:03:34;21.43;;;19.23;;
13753;SDS011;6948;51.216;6.778;2023-04-07T01:06:06;21.17;;;19.07;;
13753;SDS011;6948;51.216;6.778;2023-04-07T01:11:23;20.33;;;18.43;;
13753;SDS011;6948;51.216;6.778;2023-04-07T01:13:53;20.73;;;18.63;;
13753;SDS011;6948;51.216;6.778;2023-04-07T01:16:22;19.73;;;17.83;;
13753;SDS011;6948;51.216;6.778;2023-04-07T01:18:53;19.83;;;17.93;;
13753;SDS011;6948;51.216;6.778;2023-04-07T01:21:21;20.23;;;18.23;;
13753;SDS011;6948;51.216;6.778;2023-04-07T01:26:32;21.47;;;19.37;;
13753;SDS011;6948;51.216;6.778;2023-04-07T01:32:02;20.67;;;18.57;;
13753;SDS011;6948;51.216;6.778;2023-04-07T01:34:30;21.07;;;18.97;;
13753;SDS011;6948;51.216;6.778;2023-04-07T01:36:57;22.50;;;20.30;;
13753;SDS011;6948;51.216;6.778;2023-04-07T01:39:25;21.27;;;19.17;;
13753;SDS011;6948;51.216;6.778;2023-04-07T01:41:51;21.57;;;19.47;;
13753;SDS011;6948;51.216;6.778;2023-04-07T01:44:18;22.17;;;19.87;;
13753;SDS011;6948;51.216;6.778;2023-04-07T01:46:45;22.33;;;20.13;;
13753;SDS011;6948;51.216;6.778;2023-04-07T01:49:11;24.83;;;22.30;;
13753;SDS011;6948;51.216;6.778;2023-04-07T01:51:39;25.80;;;23.13;;
13753;SDS011;6948;51.216;6.778;2023-04-07T01:54:05;25.67;;;22.90;;
13753;SDS011;6948;51.216;6.778;2023-04-07T01:56:32;28.33;;;24.80;;
13753;SDS011;6948;51.216;6.778;2023-04-07T01:58:58;28.60;;;24.87;;
13753;SDS011;6948;51.216;6.778;2023-04-07T02:01:23;28.10;;;25.03;;
13753;SDS011;6948;51.216;6.778;2023-04-07T02:03:55;27.63;;;24.70;;
13753;SDS011;6948;51.216;6.778;2023-04-07T02:06:31;29.13;;;26.03;;
13753;SDS011;6948;51.216;6.778;2023-04-07T02:09:01;30.10;;;26.80;;
13753;SDS011;6948;51.216;6.778;2023-04-07T02:11:31;30.30;;;27.03;;
13753;SDS011;6948;51.216;6.778;2023-04-07T02:14:00;31.33;;;27.77;;
13753;SDS011;6948;51.216;6.778;2023-04-07T02:16:27;33.93;;;28.03;;
13753;SDS011;6948;51.216;6.778;2023-04-07T02:18:55;34.47;;;28.40;;
13753;SDS011;6948;51.216;6.778;2023-04-07T02:21:22;34.73;;;29.27;;
13753;SDS011;6948;51.216;6.778;2023-04-07T02:23:49;32.97;;;29.20;;
13753;SDS011;6948;51.216;6.778;2023-04-07T02:26:15;33.50;;;29.37;;
13753;SDS011;6948;51.216;6.778;2023-04-07T02:28:41;35.70;;;30.27;;
13753;SDS011;6948;51.216;6.778;2023-04-07T02:31:06;32.20;;;28.73;;
13753;SDS011;6948;51.216;6.778;2023-04-07T02:33:32;35.30;;;29.80;;
13753;SDS011;6948;51.216;6.778;2023-04-07T02:35:58;36.13;;;30.43;;
13753;SDS011;6948;51.216;6.778;2023-04-07T02:38:23;35.97;;;30.07;;
13753;SDS011;6948;51.216;6.778;2023-04-07T02:40:49;35.80;;;30.63;;
13753;SDS011;6948;51.216;6.778;2023-04-07T02:43:15;35.13;;;29.97;;
13753;SDS011;6948;51.216;6.778;2023-04-07T02:45:41;35.53;;;29.70;;
13753;SDS011;6948;51.216;6.778;2023-04-07T02:48:07;38.07;;;30.20;;
13753;SDS011;6948;51.216;6.778;2023-04-07T02:50:33;38.17;;;31.13;;
13753;SDS011;6948;51.216;6.778;2023-04-07T02:52:58;37.03;;;31.67;;
13753;SDS011;6948;51.216;6.778;2023-04-07T02:55:25;38.53;;;31.20;;
13753;SDS011;6948;51.216;6.778;2023-04-07T02:57:50;37.67;;;32.20;;
13753;SDS011;6948;51.216;6.778;2023-04-07T03:00:16;39.33;;;31.47;;
13753;SDS011;6948;51.216;6.778;2023-04-07T03:02:42;38.67;;;32.77;;
13753;SDS011;6948;51.216;6.778;2023-04-07T03:05:07;36.57;;;30.40;;
13753;SDS011;6948;51.216;6.778;2023-04-07T03:07:33;35.60;;;30.90;;
13753;SDS011;6948;51.216;6.778;2023-04-07T03:09:59;36.57;;;31.23;;
13753;SDS011;6948;51.216;6.778;2023-04-07T03:12:25;36.83;;;30.30;;
13753;SDS011;6948;51.216;6.778;2023-04-07T03:14:51;32.77;;;27.27;;
13753;SDS011;6948;51.216;6.778;2023-04-07T03:17:16;30.53;;;26.80;;
13753;SDS011;6948;51.216;6.778;2023-04-07T03:19:42;31.63;;;27.07;;
13753;SDS011;6948;51.216;6.778;2023-04-07T03:22:07;29.07;;;24.97;;
13753;SDS011;6948;51.216;6.778;2023-04-07T03:24:33;30.70;;;25.57;;
13753;SDS011;6948;51.216;6.778;2023-04-07T03:26:59;30.20;;;24.80;;
13753;SDS011;6948;51.216;6.778;2023-04-07T03:29:26;27.57;;;22.67;;
13753;SDS011;6948;51.216;6.778;2023-04-07T03:31:51;26.50;;;22.53;;
13753;SDS011;6948;51.216;6.778;2023-04-07T03:34:17;24.07;;;21.27;;
13753;SDS011;6948;51.216;6.778;2023-04-07T03:36:42;24.97;;;22.37;;
13753;SDS011;6948;51.216;6.778;2023-04-07T03:39:08;26.20;;;20.77;;
13753;SDS011;6948;51.216;6.778;2023-04-07T03:41:34;25.30;;;20.93;;
13753;SDS011;6948;51.216;6.778;2023-04-07T03:44:00;26.93;;;21.47;;
13753;SDS011;6948;51.216;6.778;2023-04-07T03:46:25;24.80;;;21.30;;
13753;SDS011;6948;51.216;6.778;2023-04-07T03:48:51;24.63;;;21.03;;
13753;SDS011;6948;51.216;6.778;2023-04-07T03:51:17;23.37;;;19.80;;
13753;SDS011;6948;51.216;6.778;2023-04-07T03:53:42;23.40;;;19.23;;
13753;SDS011;6948;51.216;6.778;2023-04-07T03:56:08;21.10;;;18.87;;
13753;SDS011;6948;51.216;6.778;2023-04-07T03:58:34;23.50;;;19.60;;
13753;SDS011;6948;51.216;6.778;2023-04-07T04:00:59;25.47;;;19.63;;
13753;SDS011;6948;51.216;6.778;2023-04-07T04:03:25;23.40;;;19.30;;
13753;SDS011;6948;51.216;6.778;2023-04-07T04:05:51;21.23;;;18.73;;
13753;SDS011;6948;51.216;6.778;2023-04-07T04:08:16;23.10;;;19.37;;
13753;SDS011;6948;51.216;6.778;2023-04-07T04:10:42;23.50;;;18.60;;
13753;SDS011;6948;51.216;6.778;2023-04-07T04:13:08;22.13;;;18.17;;
13753;SDS011;6948;51.216;6.778;2023-04-07T04:15:33;19.83;;;17.53;;
13753;SDS011;6948;51.216;6.778;2023-04-07T04:17:59;21.17;;;15.93;;
13753;SDS011;6948;51.216;6.778;2023-04-07T04:20:25;20.00;;;15.73;;
13753;SDS011;6948;51.216;6.778;2023-04-07T04:22:51;18.47;;;15.73;;
13753;SDS011;6948;51.216;6.778;2023-04-07T04:25:16;18.47;;;15.83;;
13753;SDS011;6948;51.216;6.778;2023-04-07T04:27:42;20.83;;;15.47;;
13753;SDS011;6948;51.216;6.778;2023-04-07T04:30:08;17.40;;;14.80;;
13753;SDS011;6948;51.216;6.778;2023-04-07T04:32:34;16.30;;;13.70;;
13753;SDS011;6948;51.216;6.778;2023-04-07T04:34:59;17.90;;;15.03;;
13753;SDS011;6948;51.216;6.778;2023-04-07T04:37:25;16.57;;;14.73;;
13753;SDS011;6948;51.216;6.778;2023-04-07T04:39:51;15.33;;;13.70;;
13753;SDS011;6948;51.216;6.778;2023-04-07T04:42:17;16.70;;;13.90;;
13753;SDS011;6948;51.216;6.778;2023-04-07T04:44:42;15.30;;;13.43;;
13753;SDS011;6948;51.216;6.778;2023-04-07T04:47:08;15.40;;;13.40;;
13753;SDS011;6948;51.216;6.778;2023-04-07T04:49:34;13.73;;;12.00;;
13753;SDS011;6948;51.216;6.778;2023-04-07T04:52:00;15.40;;;12.50;;
13753;SDS011;6948;51.216;6.778;2023-04-07T04:54:25;16.80;;;11.73;;
13753;SDS011;6948;51.216;6.778;2023-04-07T04:56:51;14.50;;;12.47;;
13753;SDS011;6948;51.216;6.778;2023-04-07T04:59:17;12.77;;;11.03;;
13753;SDS011;6948;51.216;6.778;2023-04-07T05:01:42;13.80;;;11.37;;
13753;SDS011;6948;51.216;6.778;2023-04-07T05:04:08;12.13;;;10.70;;
13753;SDS011;6948;51.216;6.778;2023-04-07T05:06:34;13.27;;;10.63;;
13753;SDS011;6948;51.216;6.778;2023-04-07T05:09:00;13.37;;;10.13;;
13753;SDS011;6948;51.216;6.778;2023-04-07T05:11:25;11.37;;;10.17;;
13753;SDS011;6948;51.216;6.778;2023-04-07T05:13:51;13.13;;;10.00;;
13753;SDS011;6948;51.216;6.778;2023-04-07T05:16:17;13.43;;;10.67;;
13753;SDS011;6948;51.216;6.778;2023-04-07T05:18:42;11.40;;;9.70;;
13753;SDS011;6948;51.216;6.778;2023-04-07T05:21:08;13.03;;;9.73;;
13753;SDS011;6948;51.216;6.778;2023-04-07T05:23:34;10.47;;;9.37;;
13753;SDS011;6948;51.216;6.778;2023-04-07T05:26:00;11.10;;;9.87;;
13753;SDS011;6948;51.216;6.778;2023-04-07T05:28:26;10.87;;;9.63;;
13753;SDS011;6948;51.216;6.778;2023-04-07T05:30:52;11.87;;;10.00;;
13753;SDS011;6948;51.216;6.778;2023-04-07T05:33:18;11.33;;;10.13;;
13753;SDS011;6948;51.216;6.778;2023-04-07T05:35:43;13.40;;;10.37;;
13753;SDS011;6948;51.216;6.778;2023-04-07T05:38:10;13.53;;;10.23;;
13753;SDS011;6948;51.216;6.778;2023-04-07T05:40:36;14.83;;;10.93;;
13753;SDS011;6948;51.216;6.778;2023-04-07T05:43:01;13.07;;;10.10;;
13753;SDS011;6948;51.216;6.778;2023-04-07T05:45:27;12.10;;;10.57;;
13753;SDS011;6948;51.216;6.778;2023-04-07T05:47:53;11.67;;;9.70;;
13753;SDS011;6948;51.216;6.778;2023-04-07T05:50:18;12.17;;;10.13;;
13753;SDS011;6948;51.216;6.778;2023-04-07T05:52:44;13.70;;;10.70;;
13753;SDS011;6948;51.216;6.778;2023-04-07T05:55:10;11.17;;;9.97;;
13753;SDS011;6948;51.216;6.778;2023-04-07T05:57:36;13.50;;;10.20;;
13753;SDS011;6948;51.216;6.778;2023-04-07T06:00:02;12.43;;;10.37;;
13753;SDS011;6948;51.216;6.778;2023-04-07T06:02:28;10.80;;;9.57;;
13753;SDS011;6948;51.216;6.778;2023-04-07T06:04:54;13.13;;;9.53;;
13753;SDS011;6948;51.216;6.778;2023-04-07T06:07:20;13.00;;;9.73;;
13753;SDS011;6948;51.216;6.778;2023-04-07T06:09:45;13.20;;;9.63;;
13753;SDS011;6948;51.216;6.778;2023-04-07T06:12:11;13.17;;;10.43;;
13753;SDS011;6948;51.216;6.778;2023-04-07T06:14:37;11.93;;;9.70;;
13753;SDS011;6948;51.216;6.778;2023-04-07T06:17:03;12.00;;;10.03;;
13753;SDS011;6948;51.216;6.778;2023-04-07T06:19:29;13.03;;;10.33;;
13753;SDS011;6948;51.216;6.778;2023-04-07T06:21:54;12.43;;;9.63;;
13753;SDS011;6948;51.216;6.778;2023-04-07T06:24:20;11.50;;;9.83;;
13753;SDS011;6948;51.216;6.778;2023-04-07T06:26:49;11.73;;;9.73;;
13753;SDS011;6948;51.216;6.778;2023-04-07T06:29:15;12.87;;;10.30;;
13753;SDS011;6948;51.216;6.778;2023-04-07T06:31:41;12.17;;;10.60;;
13753;SDS011;6948;51.216;6.778;2023-04-07T06:34:07;10.70;;;9.20;;
13753;SDS011;6948;51.216;6.778;2023-04-07T06:36:32;11.57;;;9.37;;
13753;SDS011;6948;51.216;6.778;2023-04-07T06:38:58;11.40;;;9.50;;
13753;SDS011;6948;51.216;6.778;2023-04-07T06:41:24;11.30;;;10.10;;
13753;SDS011;6948;51.216;6.778;2023-04-07T06:43:50;11.03;;;9.83;;
13753;SDS011;6948;51.216;6.778;2023-04-07T06:46:16;10.60;;;9.50;;
13753;SDS011;6948;51.216;6.778;2023-04-07T06:48:42;11.43;;;9.20;;
13753;SDS011;6948;51.216;6.778;2023-04-07T06:51:08;12.03;;;9.77;;
13753;SDS011;6948;51.216;6.778;2023-04-07T06:53:34;11.10;;;8.90;;
13753;SDS011;6948;51.216;6.778;2023-04-07T06:56:08;13.73;;;9.07;;
13753;SDS011;6948;51.216;6.778;2023-04-07T06:58:35;11.63;;;9.50;;
13753;SDS011;6948;51.216;6.778;2023-04-07T07:01:01;11.43;;;8.80;;
13753;SDS011;6948;51.216;6.778;2023-04-07T07:03:28;11.13;;;9.60;;
13753;SDS011;6948;51.216;6.778;2023-04-07T07:05:55;12.40;;;9.17;;
13753;SDS011;6948;51.216;6.778;2023-04-07T07:08:22;10.50;;;9.27;;
13753;SDS011;6948;51.216;6.778;2023-04-07T07:10:48;11.33;;;10.10;;
13753;SDS011;6948;51.216;6.778;2023-04-07T07:13:14;11.73;;;9.77;;
13753;SDS011;6948;51.216;6.778;2023-04-07T07:15:40;10.83;;;9.37;;
13753;SDS011;6948;51.216;6.778;2023-04-07T07:18:05;12.03;;;10.20;;
13753;SDS011;6948;51.216;6.778;2023-04-07T07:20:31;13.03;;;9.77;;
13753;SDS011;6948;51.216;6.778;2023-04-07T07:22:57;13.43;;;10.30;;
13753;SDS011;6948;51.216;6.778;2023-04-07T07:25:23;12.07;;;10.40;;
13753;SDS011;6948;51.216;6.778;2023-04-07T07:27:51;15.87;;;11.00;;
13753;SDS011;6948;51.216;6.778;2023-04-07T07:30:19;13.73;;;11.30;;
13753;SDS011;6948;51.216;6.778;2023-04-07T07:32:45;13.37;;;10.90;;
13753;SDS011;6948;51.216;6.778;2023-04-07T07:35:11;16.00;;;11.43;;
13753;SDS011;6948;51.216;6.778;2023-04-07T07:37:36;16.80;;;11.80;;
13753;SDS011;6948;51.216;6.778;2023-04-07T07:40:02;15.83;;;11.43;;
13753;SDS011;6948;51.216;6.778;2023-04-07T07:42:28;13.43;;;11.80;;
13753;SDS011;6948;51.216;6.778;2023-04-07T07:44:55;13.30;;;11.27;;
13753;SDS011;6948;51.216;6.778;2023-04-07T07:47:21;14.13;;;11.23;;
13753;SDS011;6948;51.216;6.778;2023-04-07T07:49:47;15.10;;;12.23;;
13753;SDS011;6948;51.216;6.778;2023-04-07T07:52:13;13.40;;;12.00;;
13753;SDS011;6948;51.216;6.778;2023-04-07T07:54:38;16.73;;;12.40;;
13753;SDS011;6948;51.216;6.778;2023-04-07T07:57:04;16.67;;;12.90;;
13753;SDS011;6948;51.216;6.778;2023-04-07T07:59:30;14.90;;;12.67;;
13753;SDS011;6948;51.216;6.778;2023-04-07T08:01:56;16.83;;;13.60;;
13753;SDS011;6948;51.216;6.778;2023-04-07T08:04:22;15.13;;;12.73;;
13753;SDS011;6948;51.216;6.778;2023-04-07T08:06:49;16.40;;;13.63;;
13753;SDS011;6948;51.216;6.778;2023-04-07T08:09:15;16.33;;;13.20;;
13753;SDS011;6948;51.216;6.778;2023-04-07T08:11:42;16.37;;;13.63;;
13753;SDS011;6948;51.216;6.778;2023-04-07T08:14:08;16.50;;;14.03;;
13753;SDS011;6948;51.216;6.778;2023-04-07T08:16:33;18.50;;;13.67;;
13753;SDS011;6948;51.216;6.778;2023-04-07T08:18:59;15.67;;;13.90;;
13753;SDS011;6948;51.216;6.778;2023-04-07T08:21:25;17.03;;;13.67;;
13753;SDS011;6948;51.216;6.778;2023-04-07T08:23:53;18.83;;;14.63;;
13753;SDS011;6948;51.216;6.778;2023-04-07T08:26:19;17.17;;;13.93;;
13753;SDS011;6948;51.216;6.778;2023-04-07T08:28:45;16.07;;;13.60;;
13753;SDS011;6948;51.216;6.778;2023-04-07T08:31:11;17.63;;;13.60;;
13753;SDS011;6948;51.216;6.778;2023-04-07T08:33:37;16.20;;;14.00;;
13753;SDS011;6948;51.216;6.778;2023-04-07T08:36:03;16.30;;;13.50;;
13753;SDS011;6948;51.216;6.778;2023-04-07T08:38:29;15.67;;;13.50;;
13753;SDS011;6948;51.216;6.778;2023-04-07T08:41:11;20.40;;;13.87;;
13753;SDS011;6948;51.216;6.778;2023-04-07T08:43:38;14.73;;;12.60;;
13753;SDS011;6948;51.216;6.778;2023-04-07T08:46:04;20.80;;;14.33;;
13753;SDS011;6948;51.216;6.778;2023-04-07T08:48:31;17.00;;;13.40;;
13753;SDS011;6948;51.216;6.778;2023-04-07T08:51:06;15.50;;;12.80;;
13753;SDS011;6948;51.216;6.778;2023-04-07T08:53:39;17.53;;;13.27;;
13753;SDS011;6948;51.216;6.778;2023-04-07T08:56:08;16.37;;;13.10;;
13753;SDS011;6948;51.216;6.778;2023-04-07T08:58:36;15.80;;;13.20;;
13753;SDS011;6948;51.216;6.778;2023-04-07T09:01:03;15.60;;;12.77;;
13753;SDS011;6948;51.216;6.778;2023-04-07T09:03:30;18.83;;;12.83;;
13753;SDS011;6948;51.216;6.778;2023-04-07T09:05:58;17.70;;;13.20;;
13753;SDS011;6948;51.216;6.778;2023-04-07T09:08:25;19.00;;;13.30;;
13753;SDS011;6948;51.216;6.778;2023-04-07T09:10:51;19.47;;;13.57;;
13753;SDS011;6948;51.216;6.778;2023-04-07T09:13:17;19.33;;;13.93;;
13753;SDS011;6948;51.216;6.778;2023-04-07T09:15:43;21.10;;;14.13;;
13753;SDS011;6948;51.216;6.778;2023-04-07T09:18:09;18.30;;;13.70;;
13753;SDS011;6948;51.216;6.778;2023-04-07T09:20:53;20.17;;;13.50;;
13753;SDS011;6948;51.216;6.778;2023-04-07T09:23:37;19.47;;;13.67;;
13753;SDS011;6948;51.216;6.778;2023-04-07T09:26:21;17.70;;;13.70;;
13753;SDS011;6948;51.216;6.778;2023-04-07T09:28:50;17.53;;;13.60;;
13753;SDS011;6948;51.216;6.778;2023-04-07T09:31:17;23.50;;;14.80;;
13753;SDS011;6948;51.216;6.778;2023-04-07T09:33:45;19.00;;;14.40;;
13753;SDS011;6948;51.216;6.778;2023-04-07T09:36:11;19.30;;;14.67;;
13753;SDS011;6948;51.216;6.778;2023-04-07T09:38:38;21.33;;;14.80;;
13753;SDS011;6948;51.216;6.778;2023-04-07T09:43:43;22.57;;;15.23;;
13753;SDS011;6948;51.216;6.778;2023-04-07T09:46:11;25.17;;;15.77;;
13753;SDS011;6948;51.216;6.778;2023-04-07T09:48:38;19.60;;;15.07;;
13753;SDS011;6948;51.216;6.778;2023-04-07T09:51:05;22.73;;;15.43;;
13753;SDS011;6948;51.216;6.778;2023-04-07T09:53:49;30.20;;;17.03;;
13753;SDS011;6948;51.216;6.778;2023-04-07T09:56:16;21.77;;;16.20;;
13753;SDS011;6948;51.216;6.778;2023-04-07T09:58:46;23.37;;;16.23;;
13753;SDS011;6948;51.216;6.778;2023-04-07T10:01:14;18.27;;;15.47;;
13753;SDS011;6948;51.216;6.778;2023-04-07T10:03:41;20.63;;;15.97;;
13753;SDS011;6948;51.216;6.778;2023-04-07T10:06:07;21.10;;;16.17;;
13753;SDS011;6948;51.216;6.778;2023-04-07T10:08:34;21.27;;;16.20;;
13753;SDS011;6948;51.216;6.778;2023-04-07T10:11:03;20.40;;;14.80;;
13753;SDS011;6948;51.216;6.778;2023-04-07T10:13:30;20.07;;;15.67;;
13753;SDS011;6948;51.216;6.778;2023-04-07T10:15:57;20.20;;;15.50;;
13753;SDS011;6948;51.216;6.778;2023-04-07T10:18:25;21.27;;;15.73;;
13753;SDS011;6948;51.216;6.778;2023-04-07T10:21:01;18.77;;;14.73;;
13753;SDS011;6948;51.216;6.778;2023-04-07T10:23:39;18.63;;;13.73;;
13753;SDS011;6948;51.216;6.778;2023-04-07T10:26:14;20.87;;;13.50;;
13753;SDS011;6948;51.216;6.778;2023-04-07T10:28:43;16.97;;;12.93;;
13753;SDS011;6948;51.216;6.778;2023-04-07T10:31:14;19.53;;;13.90;;
13753;SDS011;6948;51.216;6.778;2023-04-07T10:33:44;14.93;;;13.33;;
13753;SDS011;6948;51.216;6.778;2023-04-07T10:36:13;19.10;;;14.70;;
13753;SDS011;6948;51.216;6.778;2023-04-07T10:38:38;17.87;;;13.23;;
13753;SDS011;6948;51.216;6.778;2023-04-07T10:41:40;14.83;;;12.70;;
13753;SDS011;6948;51.216;6.778;2023-04-07T10:44:02;16.40;;;12.70;;
13753;SDS011;6948;51.216;6.778;2023-04-07T10:49:20;14.23;;;12.30;;
13753;SDS011;6948;51.216;6.778;2023-04-07T10:55:04;18.27;;;12.23;;
13753;SDS011;6948;51.216;6.778;2023-04-07T11:03:43;14.67;;;11.80;;
13753;SDS011;6948;51.216;6.778;2023-04-07T11:06:18;13.80;;;11.40;;
13753;SDS011;6948;51.216;6.778;2023-04-07T11:08:44;15.17;;;11.73;;
13753;SDS011;6948;51.216;6.778;2023-04-07T11:11:12;16.67;;;12.60;;
13753;SDS011;6948;51.216;6.778;2023-04-07T11:13:40;18.60;;;12.83;;
13753;SDS011;6948;51.216;6.778;2023-04-07T11:16:06;17.40;;;12.27;;
13753;SDS011;6948;51.216;6.778;2023-04-07T11:18:33;15.60;;;12.10;;
13753;SDS011;6948;51.216;6.778;2023-04-07T11:20:59;13.53;;;11.80;;
13753;SDS011;6948;51.216;6.778;2023-04-07T11:23:24;15.80;;;11.77;;
13753;SDS011;6948;51.216;6.778;2023-04-07T11:25:52;14.23;;;11.27;;
13753;SDS011;6948;51.216;6.778;2023-04-07T11:28:26;14.43;;;10.77;;
13753;SDS011;6948;51.216;6.778;2023-04-07T11:30:52;13.23;;;10.10;;
13753;SDS011;6948;51.216;6.778;2023-04-07T11:33:22;12.03;;;10.20;;
13753;SDS011;6948;51.216;6.778;2023-04-07T11:35:50;11.63;;;10.07;;
13753;SDS011;6948;51.216;6.778;2023-04-07T11:38:28;11.87;;;10.03;;
13753;SDS011;6948;51.216;6.778;2023-04-07T11:41:09;12.83;;;10.80;;
13753;SDS011;6948;51.216;6.778;2023-04-07T11:43:36;12.53;;;10.10;;
13753;SDS011;6948;51.216;6.778;2023-04-07T11:46:03;13.10;;;10.87;;
13753;SDS011;6948;51.216;6.778;2023-04-07T11:48:31;16.17;;;13.53;;
13753;SDS011;6948;51.216;6.778;2023-04-07T11:50:58;14.10;;;12.20;;
13753;SDS011;6948;51.216;6.778;2023-04-07T11:53:27;12.83;;;11.50;;
13753;SDS011;6948;51.216;6.778;2023-04-07T11:56:11;13.63;;;12.10;;
13753;SDS011;6948;51.216;6.778;2023-04-07T11:58:46;14.50;;;12.27;;
13753;SDS011;6948;51.216;6.778;2023-04-07T12:01:13;13.67;;;12.10;;
13753;SDS011;6948;51.216;6.778;2023-04-07T12:03:53;14.50;;;12.00;;
13753;SDS011;6948;51.216;6.778;2023-04-07T12:06:36;16.70;;;12.53;;
13753;SDS011;6948;51.216;6.778;2023-04-07T12:09:04;14.90;;;12.07;;
13753;SDS011;6948;51.216;6.778;2023-04-07T12:11:30;16.70;;;12.40;;
13753;SDS011;6948;51.216;6.778;2023-04-07T12:13:56;16.13;;;12.83;;
13753;SDS011;6948;51.216;6.778;2023-04-07T12:16:22;18.23;;;15.93;;
13753;SDS011;6948;51.216;6.778;2023-04-07T12:18:49;15.23;;;13.63;;
13753;SDS011;6948;51.216;6.778;2023-04-07T12:21:16;15.50;;;13.77;;
13753;SDS011;6948;51.216;6.778;2023-04-07T12:23:42;14.97;;;13.37;;
13753;SDS011;6948;51.216;6.778;2023-04-07T12:26:08;13.87;;;11.83;;
13753;SDS011;6948;51.216;6.778;2023-04-07T12:28:35;15.67;;;13.40;;
13753;SDS011;6948;51.216;6.778;2023-04-07T12:31:02;16.80;;;12.47;;
13753;SDS011;6948;51.216;6.778;2023-04-07T12:33:28;14.07;;;12.57;;
13753;SDS011;6948;51.216;6.778;2023-04-07T12:35:54;14.67;;;12.57;;
13753;SDS011;6948;51.216;6.778;2023-04-07T12:38:21;13.10;;;11.80;;
13753;SDS011;6948;51.216;6.778;2023-04-07T12:40:46;15.13;;;11.57;;
13753;SDS011;6948;51.216;6.778;2023-04-07T12:43:12;16.60;;;11.37;;
13753;SDS011;6948;51.216;6.778;2023-04-07T12:45:38;13.93;;;11.17;;
13753;SDS011;6948;51.216;6.778;2023-04-07T12:48:03;14.10;;;10.50;;
13753;SDS011;6948;51.216;6.778;2023-04-07T12:50:29;12.33;;;10.13;;
13753;SDS011;6948;51.216;6.778;2023-04-07T12:52:55;13.57;;;10.10;;
13753;SDS011;6948;51.216;6.778;2023-04-07T12:55:23;12.23;;;9.57;;
13753;SDS011;6948;51.216;6.778;2023-04-07T12:57:48;14.97;;;9.77;;
13753;SDS011;6948;51.216;6.778;2023-04-07T13:00:14;12.83;;;9.90;;
13753;SDS011;6948;51.216;6.778;2023-04-07T13:02:40;14.73;;;10.10;;
13753;SDS011;6948;51.216;6.778;2023-04-07T13:05:07;13.80;;;9.70;;
13753;SDS011;6948;51.216;6.778;2023-04-07T13:07:33;11.20;;;9.40;;
13753;SDS011;6948;51.216;6.778;2023-04-07T13:10:00;13.73;;;9.37;;
13753;SDS011;6948;51.216;6.778;2023-04-07T13:12:26;13.50;;;10.00;;
13753;SDS011;6948;51.216;6.778;2023-04-07T13:14:52;10.20;;;9.03;;
13753;SDS011;6948;51.216;6.778;2023-04-07T13:17:18;11.27;;;8.40;;
13753;SDS011;6948;51.216;6.778;2023-04-07T13:19:43;13.33;;;9.43;;
13753;SDS011;6948;51.216;6.778;2023-04-07T13:22:11;11.83;;;9.43;;
13753;SDS011;6948;51.216;6.778;2023-04-07T13:24:37;12.93;;;9.43;;
13753;SDS011;6948;51.216;6.778;2023-04-07T13:27:03;11.00;;;9.23;;
13753;SDS011;6948;51.216;6.778;2023-04-07T13:29:29;12.27;;;9.10;;
13753;SDS011;6948;51.216;6.778;2023-04-07T13:32:04;12.50;;;9.70;;
13753;SDS011;6948;51.216;6.778;2023-04-07T13:34:31;11.87;;;9.47;;
13753;SDS011;6948;51.216;6.778;2023-04-07T13:36:57;12.27;;;10.03;;
13753;SDS011;6948;51.216;6.778;2023-04-07T13:39:25;12.07;;;10.17;;
13753;SDS011;6948;51.216;6.778;2023-04-07T13:41:51;14.10;;;9.87;;
13753;SDS011;6948;51.216;6.778;2023-04-07T13:44:16;11.87;;;10.23;;
13753;SDS011;6948;51.216;6.778;2023-04-07T13:46:42;12.67;;;10.60;;
13753;SDS011;6948;51.216;6.778;2023-04-07T13:49:07;14.17;;;10.83;;
13753;SDS011;6948;51.216;6.778;2023-04-07T13:51:33;12.17;;;10.67;;
13753;SDS011;6948;51.216;6.778;2023-04-07T13:53:59;12.93;;;10.77;;
13753;SDS011;6948;51.216;6.778;2023-04-07T13:56:25;14.43;;;10.80;;
13753;SDS011;6948;51.216;6.778;2023-04-07T13:58:50;13.37;;;11.23;;
13753;SDS011;6948;51.216;6.778;2023-04-07T14:01:16;12.73;;;10.60;;
13753;SDS011;6948;51.216;6.778;2023-04-07T14:03:42;14.77;;;11.17;;
13753;SDS011;6948;51.216;6.778;2023-04-07T14:06:07;15.17;;;12.60;;
13753;SDS011;6948;51.216;6.778;2023-04-07T14:08:33;14.70;;;12.13;;
13753;SDS011;6948;51.216;6.778;2023-04-07T14:10:59;14.40;;;12.23;;
13753;SDS011;6948;51.216;6.778;2023-04-07T14:13:25;14.43;;;12.43;;
13753;SDS011;6948;51.216;6.778;2023-04-07T14:15:51;16.67;;;13.33;;
13753;SDS011;6948;51.216;6.778;2023-04-07T14:18:17;14.67;;;11.93;;
13753;SDS011;6948;51.216;6.778;2023-04-07T14:20:43;17.97;;;12.40;;
13753;SDS011;6948;51.216;6.778;2023-04-07T14:23:09;14.40;;;12.67;;
13753;SDS011;6948;51.216;6.778;2023-04-07T14:25:35;19.10;;;12.23;;
13753;SDS011;6948;51.216;6.778;2023-04-07T14:28:01;14.13;;;12.50;;
13753;SDS011;6948;51.216;6.778;2023-04-07T14:30:26;16.30;;;12.80;;
13753;SDS011;6948;51.216;6.778;2023-04-07T14:32:52;15.83;;;12.30;;
13753;SDS011;6948;51.216;6.778;2023-04-07T14:35:18;15.33;;;12.83;;
13753;SDS011;6948;51.216;6.778;2023-04-07T14:37:43;18.70;;;12.97;;
13753;SDS011;6948;51.216;6.778;2023-04-07T14:40:09;18.93;;;12.93;;
13753;SDS011;6948;51.216;6.778;2023-04-07T14:42:35;19.00;;;12.77;;
13753;SDS011;6948;51.216;6.778;2023-04-07T14:45:01;16.70;;;12.47;;
13753;SDS011;6948;51.216;6.778;2023-04-07T14:47:28;13.50;;;12.10;;
13753;SDS011;6948;51.216;6.778;2023-04-07T14:49:54;18.47;;;12.73;;
13753;SDS011;6948;51.216;6.778;2023-04-07T14:52:19;17.57;;;13.00;;
13753;SDS011;6948;51.216;6.778;2023-04-07T14:54:46;14.57;;;12.87;;
13753;SDS011;6948;51.216;6.778;2023-04-07T14:57:12;15.83;;;12.27;;